TimeAST,TemperatureF,Dew PointF,Humidity,Sea Level PressureIn,VisibilityMPH,Wind Direction,Wind SpeedMPH,Gust SpeedMPH,PrecipitationIn,Events,Conditions,WindDirDegrees,DateUTC
12:53 AM,73.9,70.0,87,30.07,10.0,East,4.6,-,N/A,,Clear,90,2013-01-25 04:53:00
1:53 AM,73.9,70.0,87,30.06,10.0,East,4.6,-,N/A,,Partly Cloudy,100,2013-01-25 05:53:00
2:53 AM,75.0,70.0,84,30.04,10.0,Variable,3.5,-,N/A,,Overcast,0,2013-01-25 06:53:00
3:53 AM,75.9,70.0,82,30.04,10.0,NNE,4.6,-,N/A,,Overcast,20,2013-01-25 07:53:00
4:53 AM,75.9,70.0,82,30.05,10.0,Calm,Calm,-,N/A,,Overcast,0,2013-01-25 08:53:00
5:53 AM,75.9,70.0,82,30.05,10.0,East,4.6,-,N/A,,Mostly Cloudy,90,2013-01-25 09:53:00
6:53 AM,75.0,71.1,87,30.06,10.0,NE,8.1,-,N/A,,Mostly Cloudy,50,2013-01-25 10:53:00
7:53 AM,75.0,70.0,84,30.08,10.0,East,13.8,-,N/A,,Overcast,80,2013-01-25 11:53:00
8:53 AM,75.9,66.9,74,30.10,10.0,East,3.5,-,N/A,,Overcast,90,2013-01-25 12:53:00
9:53 AM,81.0,64.9,58,30.11,10.0,NE,10.4,-,N/A,,Overcast,50,2013-01-25 13:53:00
10:53 AM,81.0,68.0,65,30.10,10.0,NNE,8.1,-,N/A,,Scattered Clouds,20,2013-01-25 14:53:00
11:53 AM,82.9,70.0,65,30.09,10.0,NE,11.5,19.6,N/A,,Scattered Clouds,50,2013-01-25 15:53:00
12:21 PM,75.2,71.6,89,30.09,1.8,ENE,16.1,25.3,N/A,,Overcast,60,2013-01-25 16:21:00
12:34 PM,75.2,71.6,89,30.07,3.0,NE,8.1,19.6,N/A,,Overcast,50,2013-01-25 16:34:00
12:53 PM,77.0,72.0,84,30.06,10.0,NE,8.1,-,N/A,,Overcast,50,2013-01-25 16:53:00
1:53 PM,81.0,71.1,72,30.04,10.0,NE,11.5,-,N/A,,Scattered Clouds,40,2013-01-25 17:53:00
2:53 PM,82.0,71.1,69,30.02,10.0,NE,13.8,21.9,N/A,,Clear,40,2013-01-25 18:53:00
3:53 PM,81.0,70.0,69,30.02,10.0,NE,10.4,-,N/A,,Clear,50,2013-01-25 19:53:00
4:53 PM,80.1,70.0,71,30.03,10.0,ENE,10.4,-,N/A,,Clear,70,2013-01-25 20:53:00
5:53 PM,78.1,69.1,74,30.04,10.0,NE,10.4,-,N/A,,Clear,50,2013-01-25 21:53:00
6:53 PM,77.0,69.1,76,30.05,10.0,ENE,9.2,-,N/A,,Mostly Cloudy,70,2013-01-25 22:53:00
7:53 PM,78.1,70.0,76,30.06,10.0,ENE,11.5,-,N/A,,Overcast,60,2013-01-25 23:53:00
8:53 PM,77.0,72.0,84,30.08,7.0,East,11.5,-,N/A,,Mostly Cloudy,90,2013-01-26 00:53:00
9:02 PM,75.2,71.6,89,30.07,2.5,ENE,9.2,18.4,N/A,,Overcast,70,2013-01-26 01:02:00
9:10 PM,75.2,73.4,94,30.07,3.0,East,9.2,-,N/A,,Overcast,90,2013-01-26 01:10:00
9:53 PM,75.0,73.0,94,30.07,10.0,East,10.4,-,N/A,,Mostly Cloudy,80,2013-01-26 01:53:00
10:53 PM,75.0,72.0,90,30.07,10.0,ESE,11.5,-,N/A,,Mostly Cloudy,110,2013-01-26 02:53:00
11:53 PM,75.0,72.0,90,30.06,10.0,East,10.4,-,N/A,,Overcast,100,2013-01-26 03:53:00